CPX676 Details

Departure: Providenciales International Airport (MBPV)
Arrival: Lynden Pindling International Airport (MYNN) at N/A
Route: PVN BR2L DUKKY A555 ZQA
Notes:


Current Weather Information
MBPV 191600Z 09008KT 7000 -RA SCT012CB SCT020 29/23 Q1017
MYNN 191600Z 13011KT 9999 FEW016CB SCT025 31/24 A3007